Time;durP1;ratioP1;P1;durP2;ratioP2;P2;SDS_P1;SDS_P2;PMS_P1;PMS_P2;Temp;Humidity;BMP_temperature;BMP_pressure;BME280_temperature;BME280_humidity;BME280_pressure;Samples;Min_cycle;Max_cycle;Signal;HPM_P1;HPM_P2
2023/04/16 00:02:10;;;;;;;1.10;1.00;;;18.00;41.70;;;;;;6286728;22;20146;-84
2023/04/16 00:04:37;;;;;;;1.30;1.20;;;17.90;41.70;;;;;;6340103;22;20430;-84
2023/04/16 00:07:03;;;;;;;1.48;1.30;;;17.90;41.70;;;;;;6286673;22;20151;-84
2023/04/16 00:09:29;;;;;;;1.38;1.20;;;17.90;41.70;;;;;;6312805;22;20165;-84
2023/04/16 00:11:58;;;;;;;1.23;1.13;;;17.80;41.70;;;;;;6340159;22;20131;-85
2023/04/16 00:14:24;;;;;;;1.10;1.00;;;17.90;41.70;;;;;;6235320;22;20186;-84
2023/04/16 00:16:50;;;;;;;1.27;1.17;;;17.90;41.80;;;;;;6287384;22;20139;-84
2023/04/16 00:19:20;;;;;;;0.93;0.90;;;17.90;41.80;;;;;;6312571;22;20154;-84
2023/04/16 00:21:46;;;;;;;1.15;1.05;;;17.80;41.80;;;;;;6260785;22;20194;-84
2023/04/16 00:24:12;;;;;;;0.80;0.80;;;17.90;42.40;;;;;;6312813;22;20127;-85
2023/04/16 00:26:39;;;;;;;1.33;1.10;;;17.90;41.80;;;;;;6312479;22;20581;-84
2023/04/16 00:29:05;;;;;;;1.30;1.00;;;17.90;41.90;;;;;;6340097;22;20158;-84
2023/04/16 00:31:36;;;;;;;0.95;0.93;;;17.90;41.90;;;;;;6312713;22;20136;-85
2023/04/16 00:34:02;;;;;;;1.42;1.10;;;17.80;41.90;;;;;;6235007;22;20242;-84
2023/04/16 00:36:28;;;;;;;2.05;1.30;;;17.90;41.90;;;;;;6340076;22;20201;-84
2023/04/16 00:38:58;;;;;;;1.30;1.20;;;17.90;41.90;;;;;;6313012;22;20127;-84
2023/04/16 00:41:28;;;;;;;0.85;0.82;;;17.80;42.60;;;;;;6260578;22;20152;-85
2023/04/16 00:43:54;;;;;;;0.80;0.80;;;17.90;41.90;;;;;;6235167;22;20251;-84
2023/04/16 00:46:21;;;;;;;1.42;1.20;;;17.80;41.90;;;;;;6312288;22;20567;-85
2023/04/16 00:48:52;;;;;;;1.13;1.02;;;17.90;42.00;;;;;;6286603;22;20212;-84
2023/04/16 00:51:19;;;;;;;1.02;0.93;;;17.80;42.00;;;;;;6210276;22;20155;-85
2023/04/16 00:53:45;;;;;;;1.30;1.15;;;17.80;42.00;;;;;;6312728;22;20174;-84
2023/04/16 00:56:11;;;;;;;1.00;0.90;;;17.80;42.00;;;;;;6286413;22;20146;-84
2023/04/16 00:58:38;;;;;;;1.15;1.00;;;17.80;42.00;;;;;;6312339;22;20132;-84
2023/04/16 01:01:04;;;;;;;1.25;1.10;;;17.80;42.00;;;;;;6286532;22;20143;-84
2023/04/16 01:03:39;;;;;;;1.20;1.10;;;17.80;42.10;;;;;;6312148;22;20139;-84
2023/04/16 01:06:05;;;;;;;1.30;1.20;;;17.80;42.10;;;;;;6286553;22;20139;-84
2023/04/16 01:08:31;;;;;;;1.05;0.95;;;17.80;42.10;;;;;;6286317;22;20150;-85
2023/04/16 01:10:57;;;;;;;1.30;1.20;;;17.80;42.10;;;;;;6312401;22;20210;-85
2023/04/16 01:13:27;;;;;;;1.50;1.35;;;17.80;42.10;;;;;;6286110;22;20140;-84
2023/04/16 01:15:57;;;;;;;1.20;1.10;;;17.80;42.20;;;;;;6212431;22;20196;-84
2023/04/16 01:18:25;;;;;;;2.35;1.50;;;17.80;42.10;;;;;;6254959;22;20186;-84
2023/04/16 01:20:51;;;;;;;1.48;1.27;;;17.80;42.10;;;;;;6281185;22;20207;-84
2023/04/16 01:23:21;;;;;;;1.27;1.10;;;17.80;42.20;;;;;;6255334;22;20139;-85
2023/04/16 01:25:47;;;;;;;1.20;1.10;;;17.80;42.20;;;;;;6229360;22;20148;-85
2023/04/16 01:28:13;;;;;;;1.70;1.15;;;17.80;42.20;;;;;;6281357;22;20556;-84
2023/04/16 01:30:43;;;;;;;1.20;1.10;;;17.80;42.30;;;;;;6281433;22;20140;-83
2023/04/16 01:33:10;;;;;;;0.95;0.90;;;17.80;42.30;;;;;;6229747;22;20154;-85
2023/04/16 01:35:42;;;;;;;1.35;1.25;;;17.70;42.20;;;;;;6280565;22;20524;-85
2023/04/16 01:38:11;;;;;;;1.13;1.02;;;17.80;42.30;;;;;;6229490;22;20651;-84
2023/04/16 01:40:41;;;;;;;1.30;1.20;;;17.80;42.30;;;;;;6254606;22;20653;-84
2023/04/16 01:43:11;;;;;;;1.20;1.10;;;17.80;42.30;;;;;;6229578;22;20473;-83
2023/04/16 01:45:37;;;;;;;1.30;1.20;;;17.70;42.30;;;;;;6254604;22;20148;-85
2023/04/16 01:48:03;;;;;;;1.40;1.25;;;17.80;42.40;;;;;;6281268;22;20139;-85
2023/04/16 01:50:29;;;;;;;1.67;1.30;;;17.70;42.30;;;;;;6255935;22;20210;-85
2023/04/16 01:52:55;;;;;;;1.20;1.10;;;17.80;42.30;;;;;;6255500;22;20164;-85
2023/04/16 01:55:26;;;;;;;1.27;1.05;;;17.80;42.30;;;;;;6281017;22;20596;-84
2023/04/16 01:57:52;;;;;;;1.20;1.10;;;17.80;42.40;;;;;;6203999;22;20152;-85
2023/04/16 02:00:18;;;;;;;1.98;1.20;;;17.80;42.40;;;;;;6255571;22;20511;-85
2023/04/16 02:02:44;;;;;;;1.23;1.00;;;17.80;42.40;;;;;;6255176;22;20140;-85
2023/04/16 02:05:10;;;;;;;1.45;1.20;;;17.80;42.40;;;;;;6308024;22;20132;-85
2023/04/16 02:07:40;;;;;;;1.30;1.20;;;17.80;42.40;;;;;;6256025;22;20197;-85
2023/04/16 02:10:10;;;;;;;1.33;1.23;;;17.70;42.40;;;;;;6254583;22;20486;-85
2023/04/16 02:12:36;;;;;;;1.45;1.27;;;17.80;42.40;;;;;;6204201;22;20190;-85
2023/04/16 02:15:02;;;;;;;1.42;1.10;;;17.70;42.50;;;;;;6292205;22;20607;-85
2023/04/16 02:17:28;;;;;;;1.20;1.10;;;17.70;42.50;;;;;;6311819;22;20171;-84
2023/04/16 02:20:01;;;;;;;1.30;1.13;;;17.80;42.60;;;;;;6285696;22;20150;-84
2023/04/16 02:22:27;;;;;;;1.10;1.00;;;17.70;42.50;;;;;;6236027;22;20230;-84
2023/04/16 02:24:52;;;;;;;1.45;1.20;;;17.80;42.50;;;;;;6286303;22;20174;-85
2023/04/16 02:27:22;;;;;;;1.38;1.15;;;17.70;42.60;;;;;;6286412;22;20148;-85
2023/04/16 02:29:48;;;;;;;1.65;1.40;;;17.70;42.50;;;;;;6234385;22;20178;-85
2023/04/16 02:32:14;;;;;;;1.20;1.10;;;17.70;42.50;;;;;;6311306;22;20559;-85
2023/04/16 02:34:45;;;;;;;1.63;1.10;;;17.80;42.60;;;;;;6311903;22;20159;-86
2023/04/16 02:37:16;;;;;;;1.20;1.10;;;17.70;42.60;;;;;;6203787;22;20152;-84
2023/04/16 02:39:42;;;;;;;1.20;1.10;;;17.70;42.60;;;;;;6249356;22;20583;-84
2023/04/16 02:42:13;;;;;;;1.20;1.10;;;17.70;42.50;;;;;;6285927;22;20193;-84
2023/04/16 02:44:39;;;;;;;1.27;1.17;;;17.70;42.60;;;;;;6260055;22;20151;-84
2023/04/16 02:47:05;;;;;;;2.00;1.13;;;17.70;42.60;;;;;;6312107;22;20234;-84
2023/04/16 02:49:31;;;;;;;1.10;1.00;;;17.60;42.60;;;;;;6313792;22;20586;-84
2023/04/16 02:51:57;;;;;;;1.02;1.00;;;17.70;42.60;;;;;;6313721;22;20246;-84
2023/04/16 02:54:22;;;;;;;1.40;1.30;;;17.70;42.70;;;;;;6313615;22;20590;-85
2023/04/16 02:56:48;;;;;;;1.58;1.00;;;17.70;42.70;;;;;;6287400;22;20547;-85
2023/04/16 02:59:14;;;;;;;1.20;1.10;;;17.70;42.80;;;;;;6287569;22;20140;-84
2023/04/16 03:01:45;;;;;;;1.33;1.23;;;17.70;42.70;;;;;;6313287;22;20622;-86
2023/04/16 03:04:11;;;;;;;1.30;1.20;;;17.70;42.70;;;;;;6211334;22;20155;-85
2023/04/16 03:06:37;;;;;;;1.20;1.00;;;17.70;42.70;;;;;;6340799;22;20222;-85
2023/04/16 03:09:02;;;;;;;1.52;1.20;;;17.70;42.70;;;;;;6313168;22;20150;-85
2023/04/16 03:11:28;;;;;;;0.93;0.88;;;17.70;42.60;;;;;;6314144;22;20185;-85
2023/04/16 03:13:55;;;;;;;1.35;1.23;;;17.70;42.70;;;;;;6313049;22;20159;-85
2023/04/16 03:16:21;;;;;;;1.02;0.93;;;17.70;42.60;;;;;;6312972;22;20221;-85
2023/04/16 03:18:47;;;;;;;1.20;1.10;;;17.70;42.80;;;;;;6287240;22;20151;-85
2023/04/16 03:21:18;;;;;;;1.20;1.10;;;17.70;42.70;;;;;;6313091;22;20127;-85
2023/04/16 03:23:44;;;;;;;2.53;1.23;;;17.70;42.70;;;;;;6210526;22;20155;-84
2023/04/16 03:26:10;;;;;;;1.27;1.17;;;17.60;42.70;;;;;;6287230;22;20486;-83
2023/04/16 03:28:35;;;;;;;1.40;1.00;;;17.70;42.70;;;;;;6287892;22;20618;-84
2023/04/16 03:31:02;;;;;;;1.27;1.17;;;17.70;42.70;;;;;;6287048;22;20152;-84
2023/04/16 03:33:27;;;;;;;1.25;1.15;;;17.80;42.90;;;;;;6340299;22;20135;-85
2023/04/16 03:35:56;;;;;;;1.52;1.42;;;17.70;42.80;;;;;;6313111;22;20690;-85
2023/04/16 03:38:23;;;;;;;1.20;1.10;;;17.70;42.80;;;;;;6287072;22;20150;-84
2023/04/16 03:40:49;;;;;;;1.23;1.13;;;17.70;42.80;;;;;;6312721;22;20154;-85
2023/04/16 03:43:15;;;;;;;1.20;1.10;;;17.70;42.80;;;;;;6340674;22;20559;-84
2023/04/16 03:45:46;;;;;;;1.45;1.35;;;17.70;42.80;;;;;;6287199;22;20147;-84
2023/04/16 03:48:12;;;;;;;1.30;1.20;;;17.70;42.80;;;;;;6230395;22;20155;-86
2023/04/16 03:50:38;;;;;;;1.10;1.00;;;17.70;42.90;;;;;;6334205;22;20131;-85
2023/04/16 03:53:04;;;;;;;1.15;1.05;;;17.70;43.00;;;;;;6340272;22;20124;-85
2023/04/16 03:55:30;;;;;;;1.17;1.08;;;17.60;42.90;;;;;;6287312;22;20175;-85
2023/04/16 03:58:01;;;;;;;1.17;1.02;;;17.70;42.90;;;;;;6313117;22;20447;-85
2023/04/16 04:00:31;;;;;;;1.20;1.10;;;17.60;42.90;;;;;;6212062;22;20196;-85
2023/04/16 04:03:01;;;;;;;1.20;1.10;;;17.60;42.90;;;;;;6210106;22;20152;-84
2023/04/16 04:05:34;;;;;;;2.28;1.35;;;17.60;43.00;;;;;;6210277;22;20209;-85
2023/04/16 04:08:04;;;;;;;1.42;1.20;;;17.60;43.00;;;;;;6237694;22;20602;-85
2023/04/16 04:10:36;;;;;;;1.20;1.10;;;17.70;43.00;;;;;;6235585;22;20505;-85
2023/04/16 04:13:03;;;;;;;2.00;1.27;;;17.70;43.00;;;;;;6210157;22;20159;-85
2023/04/16 04:15:30;;;;;;;1.27;1.17;;;17.60;43.00;;;;;;6280897;22;20526;-84
2023/04/16 04:17:59;;;;;;;0.98;0.90;;;17.70;43.00;;;;;;6256121;22;20167;-85
2023/04/16 04:20:28;;;;;;;1.30;1.20;;;17.70;43.00;;;;;;6235168;22;20152;-85
2023/04/16 04:22:57;;;;;;;1.10;1.00;;;17.60;43.00;;;;;;6235011;22;20154;-85
2023/04/16 04:25:27;;;;;;;1.40;1.30;;;17.60;43.00;;;;;;6235056;22;20578;-84
2023/04/16 04:27:56;;;;;;;1.20;1.10;;;17.70;43.10;;;;;;6260278;22;20147;-85
2023/04/16 04:30:26;;;;;;;1.20;1.10;;;17.60;43.10;;;;;;6260554;22;20147;-85
2023/04/16 04:32:55;;;;;;;1.23;1.13;;;17.60;43.00;;;;;;6235128;22;20201;-85
2023/04/16 04:35:24;;;;;;;1.17;1.08;;;17.70;43.00;;;;;;6260108;22;20213;-85
2023/04/16 04:37:52;;;;;;;1.25;1.15;;;17.70;43.00;;;;;;6234912;22;20237;-85
2023/04/16 04:40:21;;;;;;;1.35;1.17;;;17.60;42.90;;;;;;6209665;22;20151;-85
2023/04/16 04:42:50;;;;;;;1.30;1.20;;;17.70;42.90;;;;;;6260218;22;20166;-85
2023/04/16 04:45:20;;;;;;;1.40;1.10;;;17.70;42.90;;;;;;6209906;22;20150;-85
2023/04/16 04:47:51;;;;;;;1.10;1.00;;;17.70;42.90;;;;;;6235162;22;20155;-85
2023/04/16 04:50:20;;;;;;;2.05;1.10;;;17.70;43.00;;;;;;6210368;22;20151;-84
2023/04/16 04:52:46;;;;;;;1.38;1.27;;;17.70;42.90;;;;;;6260751;22;20201;-84
2023/04/16 04:55:14;;;;;;;1.23;1.00;;;17.70;42.90;;;;;;6287809;22;20167;-84
2023/04/16 04:57:41;;;;;;;1.05;1.00;;;17.70;42.90;;;;;;6261349;22;20147;-85
2023/04/16 05:00:09;;;;;;;1.33;1.23;;;17.70;43.00;;;;;;6287579;22;20210;-86
2023/04/16 05:02:35;;;;;;;1.30;1.10;;;17.70;43.00;;;;;;6262546;22;20158;-85
2023/04/16 05:05:02;;;;;;;1.13;1.02;;;17.70;43.00;;;;;;6287766;22;20575;-85
2023/04/16 05:07:31;;;;;;;2.03;1.10;;;17.70;42.90;;;;;;6313695;22;20135;-85
2023/04/16 05:09:58;;;;;;;1.38;1.27;;;17.70;42.80;;;;;;6287019;22;20201;-85
2023/04/16 05:12:24;;;;;;;1.10;1.00;;;17.80;42.80;;;;;;6312987;22;20143;-85
2023/04/16 05:14:49;;;;;;;1.27;1.17;;;17.80;42.90;;;;;;6286479;22;20249;-85
2023/04/16 05:17:16;;;;;;;1.23;1.13;;;17.70;42.90;;;;;;6287212;22;20150;-85
2023/04/16 05:19:43;;;;;;;1.05;0.95;;;17.80;42.80;;;;;;6289300;22;20191;-85
2023/04/16 05:22:08;;;;;;;1.30;1.20;;;17.80;42.80;;;;;;6289705;22;20202;-85
2023/04/16 05:24:35;;;;;;;1.38;1.23;;;17.80;42.70;;;;;;6289105;22;20135;-85
2023/04/16 05:27:00;;;;;;;1.30;1.20;;;17.90;42.70;;;;;;6289421;22;20143;-85
2023/04/16 05:29:27;;;;;;;1.40;1.27;;;17.90;42.60;;;;;;6288940;22;20173;-85
2023/04/16 05:31:54;;;;;;;1.60;1.15;;;17.90;42.60;;;;;;6263193;22;20147;-84
2023/04/16 05:34:21;;;;;;;1.50;1.40;;;17.90;42.60;;;;;;6287860;22;20166;-84
2023/04/16 05:36:46;;;;;;;1.20;1.10;;;17.90;42.60;;;;;;6286969;22;20144;-86
2023/04/16 05:39:15;;;;;;;1.33;1.20;;;17.90;42.60;;;;;;6314301;22;20501;-84
2023/04/16 05:41:41;;;;;;;1.20;1.10;;;17.80;42.60;;;;;;6314207;22;20459;-85
2023/04/16 05:44:14;;;;;;;1.15;1.05;;;18.00;42.60;;;;;;6314548;22;20135;-85
2023/04/16 05:46:39;;;;;;;1.10;1.00;;;17.90;42.60;;;;;;6238175;22;20477;-85
2023/04/16 05:49:12;;;;;;;1.77;1.25;;;17.90;42.50;;;;;;6288545;22;20582;-86
2023/04/16 05:51:38;;;;;;;1.20;1.10;;;17.90;42.60;;;;;;6262209;22;20548;-85
2023/04/16 05:54:09;;;;;;;1.42;1.20;;;18.00;42.50;;;;;;6313875;22;20159;-86
2023/04/16 05:56:35;;;;;;;1.50;1.20;;;18.00;42.50;;;;;;6236763;22;20143;-85
2023/04/16 05:59:00;;;;;;;1.52;1.20;;;18.00;42.40;;;;;;6262660;22;20150;-86
2023/04/16 06:01:26;;;;;;;1.20;1.10;;;18.00;42.40;;;;;;6314063;22;20177;-85
2023/04/16 06:03:55;;;;;;;1.23;1.13;;;18.00;42.40;;;;;;6262679;22;20173;-85
2023/04/16 06:06:22;;;;;;;1.00;0.95;;;18.10;42.40;;;;;;6236406;22;20151;-86
2023/04/16 06:08:48;;;;;;;1.38;1.27;;;18.10;42.40;;;;;;6313811;22;20128;-85
2023/04/16 06:11:14;;;;;;;1.20;1.10;;;18.00;42.40;;;;;;6341181;22;20139;-85
2023/04/16 06:13:41;;;;;;;1.25;1.15;;;18.10;42.30;;;;;;6287658;22;20155;-85
2023/04/16 06:16:11;;;;;;;1.25;1.10;;;18.10;42.30;;;;;;6313205;22;20182;-84
2023/04/16 06:18:41;;;;;;;1.48;1.25;;;18.10;42.20;;;;;;6235882;22;20668;-85
2023/04/16 06:21:11;;;;;;;1.10;1.00;;;18.20;42.20;;;;;;6236475;22;20155;-86
2023/04/16 06:23:42;;;;;;;1.00;0.90;;;18.10;42.20;;;;;;6238609;22;20151;-85
2023/04/16 06:26:11;;;;;;;1.17;1.00;;;18.20;42.10;;;;;;6262789;22;20621;-86
2023/04/16 06:28:41;;;;;;;1.38;1.27;;;18.10;42.20;;;;;;6263895;22;20235;-85
2023/04/16 06:31:10;;;;;;;1.30;1.17;;;18.20;42.20;;;;;;6238260;22;20154;-86
2023/04/16 06:33:39;;;;;;;1.40;1.30;;;18.10;42.30;;;;;;6237143;22;20242;-84
2023/04/16 06:36:10;;;;;;;1.23;1.13;;;18.20;42.30;;;;;;6210693;22;20205;-85
2023/04/16 06:38:39;;;;;;;1.25;1.15;;;18.10;42.40;;;;;;6236469;22;20151;-85
2023/04/16 06:41:07;;;;;;;1.15;0.93;;;18.00;42.50;;;;;;6236494;22;20532;-85
2023/04/16 06:43:36;;;;;;;1.38;1.27;;;18.10;42.40;;;;;;6211965;22;20155;-86
2023/04/16 06:46:04;;;;;;;1.30;1.20;;;18.20;42.30;;;;;;6237795;22;20179;-84
2023/04/16 06:48:30;;;;;;;1.38;1.27;;;18.10;42.20;;;;;;6237060;22;20147;-85
2023/04/16 06:51:00;;;;;;;1.30;1.20;;;18.10;42.30;;;;;;6290791;22;20217;-85
2023/04/16 06:53:27;;;;;;;1.40;1.13;;;18.10;42.30;;;;;;6217199;22;20155;-83
2023/04/16 06:55:53;;;;;;;2.33;1.25;;;18.30;42.10;;;;;;6240722;22;20147;-85
2023/04/16 06:58:21;;;;;;;1.25;1.15;;;18.40;42.10;;;;;;6344930;22;20440;-85
2023/04/16 07:00:47;;;;;;;2.10;1.17;;;18.30;42.00;;;;;;6287960;22;20574;-83
2023/04/16 07:03:14;;;;;;;3.22;1.40;;;18.30;42.10;;;;;;6287555;22;20226;-84
2023/04/16 07:05:43;;;;;;;1.58;1.15;;;18.30;42.30;;;;;;6340927;22;20207;-84
2023/04/16 07:08:09;;;;;;;1.20;1.10;;;18.30;42.50;;;;;;6236487;22;20148;-84
2023/04/16 07:10:35;;;;;;;6.40;1.10;;;18.20;42.50;;;;;;6320873;22;20147;-84
2023/04/16 07:13:01;;;;;;;2.55;1.30;;;18.20;42.40;;;;;;6319962;22;20147;-85
2023/04/16 07:15:27;;;;;;;3.60;1.45;;;18.30;42.30;;;;;;6271394;22;20248;-85
2023/04/16 07:18:02;;;;;;;3.13;1.40;;;18.30;42.10;;;;;;6271984;22;20146;-83
2023/04/16 07:20:29;;;;;;;2.40;1.13;;;18.40;42.00;;;;;;6218518;22;20150;-84
2023/04/16 07:22:58;;;;;;;1.42;1.17;;;18.40;42.00;;;;;;6293925;22;20132;-84
2023/04/16 07:25:25;;;;;;;1.33;1.23;;;18.40;42.00;;;;;;6263814;22;20155;-84
2023/04/16 07:27:57;;;;;;;1.25;1.15;;;18.40;42.00;;;;;;6291876;22;20210;-85
2023/04/16 07:30:23;;;;;;;1.40;1.30;;;18.40;41.90;;;;;;6219130;22;20147;-84
2023/04/16 07:32:54;;;;;;;1.67;1.30;;;18.40;42.00;;;;;;6318258;22;20142;-85
2023/04/16 07:35:21;;;;;;;5.13;1.50;;;18.40;42.00;;;;;;6263675;22;20179;-84
2023/04/16 07:37:46;;;;;;;2.00;1.00;;;18.50;41.90;;;;;;6341946;22;20218;-85
2023/04/16 07:40:13;;;;;;;4.18;1.48;;;18.50;41.90;;;;;;6290051;22;20140;-84
2023/04/16 07:42:39;;;;;;;4.70;1.20;;;18.50;42.10;;;;;;6315998;22;20424;-86
2023/04/16 07:45:08;;;;;;;2.35;1.20;;;18.40;42.10;;;;;;6289272;22;20131;-85
2023/04/16 07:47:34;;;;;;;1.83;1.17;;;18.50;41.90;;;;;;6267631;22;20150;-84
2023/04/16 07:50:01;;;;;;;3.35;1.00;;;18.50;42.00;;;;;;6289972;22;20144;-87
2023/04/16 07:52:26;;;;;;;2.20;1.30;;;18.50;42.00;;;;;;6314223;22;20163;-86
2023/04/16 07:54:52;;;;;;;3.72;1.35;;;18.60;41.90;;;;;;6316676;22;20163;-85
2023/04/16 07:57:21;;;;;;;3.40;1.13;;;18.60;41.90;;;;;;6269986;22;20143;-85
2023/04/16 07:59:46;;;;;;;2.65;1.42;;;18.60;42.10;;;;;;6266552;22;20154;-84
2023/04/16 08:02:14;;;;;;;2.65;1.40;;;18.70;42.40;;;;;;6289935;22;20143;-85
2023/04/16 08:04:40;;;;;;;6.63;1.23;;;18.60;42.40;;;;;;6287250;22;20135;-81
2023/04/16 08:07:07;;;;;;;5.20;1.42;;;18.60;42.30;;;;;;6263105;22;20147;-82
2023/04/16 08:09:34;;;;;;;2.83;1.17;;;18.60;42.20;;;;;;6295514;22;20177;-84
2023/04/16 08:12:01;;;;;;;4.40;1.45;;;18.80;42.30;;;;;;6298874;22;20143;-82
2023/04/16 08:14:26;;;;;;;2.55;1.05;;;18.90;42.10;;;;;;6300045;22;20191;-82
2023/04/16 08:16:53;;;;;;;4.05;1.33;;;18.80;41.80;;;;;;6273033;22;20159;-82
2023/04/16 08:19:19;;;;;;;2.10;1.08;;;18.80;41.80;;;;;;6293311;22;20128;-83
2023/04/16 08:21:45;;;;;;;5.13;1.35;;;18.80;41.80;;;;;;6318601;22;20134;-83
2023/04/16 08:24:11;;;;;;;2.75;1.33;;;18.80;41.60;;;;;;6294547;22;20138;-83
2023/04/16 08:26:38;;;;;;;6.78;1.17;;;18.80;41.50;;;;;;6293438;22;20533;-83
2023/04/16 08:29:03;;;;;;;4.60;1.10;;;18.80;41.70;;;;;;6291702;22;20136;-83
2023/04/16 08:31:30;;;;;;;6.47;1.15;;;18.80;41.60;;;;;;6294669;22;20545;-84
2023/04/16 08:33:56;;;;;;;3.75;1.30;;;18.80;41.60;;;;;;6293098;22;20537;-84
2023/04/16 08:36:22;;;;;;;8.85;1.63;;;18.80;41.60;;;;;;6290421;22;20482;-82
2023/04/16 08:38:48;;;;;;;4.88;1.10;;;18.80;41.60;;;;;;6290214;22;20135;-82
2023/04/16 08:41:14;;;;;;;2.67;1.20;;;18.80;41.80;;;;;;6315716;22;20131;-84
2023/04/16 08:43:43;;;;;;;2.83;1.10;;;18.80;41.90;;;;;;6314087;22;20236;-82
2023/04/16 08:46:09;;;;;;;4.03;1.10;;;18.90;41.70;;;;;;6286089;22;20147;-82
2023/04/16 08:48:36;;;;;;;5.82;1.42;;;18.80;41.50;;;;;;6315585;22;20130;-83
2023/04/16 08:51:02;;;;;;;1.92;1.13;;;18.80;41.80;;;;;;6314365;22;20186;-82
2023/04/16 08:53:32;;;;;;;4.78;1.13;;;18.80;41.60;;;;;;6293910;22;20159;-83
2023/04/16 08:55:57;;;;;;;1.67;0.90;;;18.90;41.40;;;;;;6266487;22;20136;-84
2023/04/16 08:58:23;;;;;;;4.60;1.10;;;18.90;41.70;;;;;;6254649;22;20203;-83
2023/04/16 09:00:50;;;;;;;8.75;1.40;;;18.90;42.00;;;;;;6230792;22;20144;-85
2023/04/16 09:03:20;;;;;;;1.67;1.00;;;18.70;42.00;;;;;;6227770;22;20149;-86
2023/04/16 09:05:46;;;;;;;3.88;1.17;;;18.80;42.10;;;;;;6200434;22;20234;-84
2023/04/16 09:08:12;;;;;;;6.20;1.10;;;18.70;42.80;;;;;;6254240;22;20144;-85
2023/04/16 09:10:38;;;;;;;4.18;1.05;;;18.70;43.00;;;;;;6277883;22;20132;-85
2023/04/16 09:13:04;;;;;;;4.45;1.05;;;18.70;43.00;;;;;;6226217;22;20231;-85
2023/04/16 09:15:31;;;;;;;4.18;1.17;;;18.70;43.00;;;;;;6226168;22;20192;-86
2023/04/16 09:17:57;;;;;;;1.75;1.00;;;18.70;43.10;;;;;;6226354;22;20294;-86
2023/04/16 09:20:23;;;;;;;3.60;1.20;;;18.60;43.00;;;;;;6250820;22;20133;-85
2023/04/16 09:22:49;;;;;;;2.92;1.13;;;18.60;43.10;;;;;;6225683;22;20223;-86
2023/04/16 09:25:15;;;;;;;3.20;1.33;;;18.60;42.60;;;;;;6226421;22;20228;-86
2023/04/16 09:27:41;;;;;;;8.02;1.13;;;18.60;42.80;;;;;;6278662;22;20129;-86
2023/04/16 09:30:23;;;;;;;3.72;1.08;;;18.60;43.20;;;;;;6278263;22;20214;-86
2023/04/16 09:32:50;;;;;;;5.85;0.95;;;18.50;43.20;;;;;;6314369;22;20192;-86
2023/04/16 09:35:19;;;;;;;2.88;1.42;;;18.60;42.60;;;;;;6289245;22;20573;-87
2023/04/16 09:37:56;;;;;;;5.75;1.00;;;18.60;42.40;;;;;;6213139;22;20242;-86
2023/04/16 09:40:25;;;;;;;2.75;1.00;;;18.70;42.60;;;;;;6290269;22;20165;-86
2023/04/16 09:42:51;;;;;;;6.80;1.20;;;18.70;42.30;;;;;;6264739;22;20143;-86
2023/04/16 09:45:16;;;;;;;8.05;1.23;;;18.70;42.40;;;;;;6285947;22;20135;-86
2023/04/16 09:47:43;;;;;;;2.42;1.20;;;18.80;42.30;;;;;;6286983;22;20134;-86
2023/04/16 09:50:14;;;;;;;2.00;0.90;;;18.80;42.40;;;;;;6288384;22;20155;-86
2023/04/16 09:53:01;;;;;;;8.65;1.38;;;18.80;42.50;;;;;;6314378;22;20138;-86
2023/04/16 09:55:26;;;;;;;9.00;1.40;;;18.70;42.60;;;;;;6251423;22;20184;-86
2023/04/16 09:57:59;;;;;;;8.32;1.20;;;18.70;42.30;;;;;;6202000;22;20487;-86
2023/04/16 10:00:25;;;;;;;7.15;0.90;;;18.80;42.70;;;;;;6227691;22;20195;-86
2023/04/16 10:03:16;;;;;;;8.95;1.77;;;18.70;42.70;;;;;;6227468;22;20152;-86
2023/04/16 10:05:42;;;;;;;8.48;1.30;;;18.70;43.00;;;;;;6201606;22;20615;-86
2023/04/16 10:08:19;;;;;;;4.70;1.00;;;18.70;43.00;;;;;;6252617;22;20141;-87
2023/04/16 10:10:45;;;;;;;5.40;1.00;;;18.70;42.80;;;;;;6202653;22;20158;-86
2023/04/16 10:13:13;;;;;;;7.30;1.17;;;18.70;43.00;;;;;;6227363;22;20192;-87
2023/04/16 10:15:38;;;;;;;1.30;1.00;;;18.70;42.60;;;;;;6226838;22;20258;-86
2023/04/16 10:18:06;;;;;;;2.53;1.20;;;18.70;42.90;;;;;;6227065;22;20212;-86
2023/04/16 10:20:32;;;;;;;2.42;1.08;;;18.70;42.60;;;;;;6203148;22;20152;-86
2023/04/16 10:22:58;;;;;;;4.40;1.10;;;18.70;43.00;;;;;;6201854;22;20145;-86
2023/04/16 10:25:24;;;;;;;6.97;1.48;;;18.60;43.00;;;;;;6252438;22;20148;-86
2023/04/16 10:27:51;;;;;;;4.45;0.98;;;18.70;42.80;;;;;;6252220;22;20144;-85
2023/04/16 10:30:19;;;;;;;3.75;1.10;;;18.70;42.70;;;;;;6277000;22;20141;-86
2023/04/16 10:32:45;;;;;;;2.28;1.10;;;18.70;42.60;;;;;;6226469;22;20148;-87
2023/04/16 10:35:15;;;;;;;2.85;1.17;;;18.70;42.60;;;;;;6253130;22;20168;-85
2023/04/16 10:37:41;;;;;;;3.20;1.10;;;18.70;42.60;;;;;;6226897;22;20140;-85
2023/04/16 10:40:25;;;;;;;2.70;0.98;;;18.70;43.00;;;;;;6253813;22;20151;-85
2023/04/16 10:42:57;;;;;;;3.80;1.02;;;18.70;42.60;;;;;;6262531;22;20199;-85
2023/04/16 10:45:30;;;;;;;4.97;1.00;;;18.70;42.80;;;;;;6288298;22;20130;-85
2023/04/16 10:47:57;;;;;;;3.20;1.00;;;18.60;42.60;;;;;;6263184;22;20512;-84
2023/04/16 10:50:35;;;;;;;2.85;0.93;;;18.70;42.40;;;;;;6263562;22;20463;-83
2023/04/16 10:53:17;;;;;;;1.80;1.00;;;18.70;42.50;;;;;;6218741;22;20159;-86
2023/04/16 10:56:15;;;;;;;2.10;1.10;;;18.60;42.30;;;;;;6290391;22;20218;-85
2023/04/16 10:58:42;;;;;;;1.60;0.90;;;18.60;42.80;;;;;;6318427;22;20135;-85
2023/04/16 11:01:12;;;;;;;1.77;1.05;;;18.60;42.80;;;;;;6297723;22;20468;-85
2023/04/16 11:03:42;;;;;;;2.97;0.88;;;18.60;42.80;;;;;;6296589;22;20166;-86
2023/04/16 11:06:11;;;;;;;2.75;1.05;;;18.60;42.30;;;;;;6271047;22;20131;-86
2023/04/16 11:08:39;;;;;;;2.25;1.05;;;18.70;42.60;;;;;;6270896;22;20165;-85
2023/04/16 11:11:11;;;;;;;2.88;0.90;;;18.60;42.60;;;;;;6270458;22;20139;-86
2023/04/16 11:13:41;;;;;;;2.45;1.10;;;18.60;42.80;;;;;;6296822;22;20140;-85
2023/04/16 11:16:07;;;;;;;3.28;0.88;;;18.60;42.50;;;;;;6262840;22;20480;-84
2023/04/16 11:18:33;;;;;;;2.65;0.90;;;18.60;42.50;;;;;;6265301;22;20151;-84
2023/04/16 11:20:59;;;;;;;2.65;1.15;;;18.60;42.50;;;;;;6264521;22;20267;-83
2023/04/16 11:23:24;;;;;;;3.22;0.90;;;18.60;42.40;;;;;;6290269;22;20129;-83
2023/04/16 11:25:55;;;;;;;2.90;1.02;;;18.60;42.50;;;;;;6315268;22;20148;-82
2023/04/16 11:28:34;;;;;;;1.17;0.95;;;18.50;42.40;;;;;;6264489;22;20148;-83
2023/04/16 11:31:19;;;;;;;2.63;0.90;;;18.60;43.00;;;;;;6261824;22;20170;-83
2023/04/16 11:33:45;;;;;;;2.70;1.00;;;18.50;42.40;;;;;;6263849;22;20147;-85
2023/04/16 11:36:11;;;;;;;2.00;1.00;;;18.60;42.70;;;;;;6294591;22;20124;-85
2023/04/16 11:38:39;;;;;;;5.55;0.90;;;18.50;42.20;;;;;;6269900;22;20201;-85
2023/04/16 11:41:05;;;;;;;1.23;1.00;;;18.50;42.50;;;;;;6296214;22;20152;-85
2023/04/16 11:43:37;;;;;;;0.90;0.80;;;18.60;42.50;;;;;;6266930;22;20478;-84
2023/04/16 11:46:05;;;;;;;2.65;1.00;;;18.60;42.30;;;;;;6323086;22;20552;-85
2023/04/16 11:48:46;;;;;;;1.38;0.98;;;18.60;42.40;;;;;;6297125;22;20124;-85
2023/04/16 11:51:13;;;;;;;1.00;0.90;;;18.50;42.60;;;;;;6291318;22;20575;-84
2023/04/16 11:53:51;;;;;;;0.90;0.80;;;18.50;42.10;;;;;;6291150;22;20154;-84
2023/04/16 11:56:27;;;;;;;1.63;0.80;;;18.50;42.70;;;;;;6270512;22;20159;-84
2023/04/16 11:59:14;;;;;;;1.23;1.08;;;18.60;42.00;;;;;;6296190;22;20130;-86
2023/04/16 12:01:40;;;;;;;1.55;0.93;;;18.70;41.80;;;;;;6292881;22;20618;-86
2023/04/16 12:04:06;;;;;;;2.55;1.10;;;18.70;41.70;;;;;;6294904;22;20219;-86
2023/04/16 12:06:32;;;;;;;1.90;0.98;;;18.70;41.80;;;;;;6271704;22;20151;-84
2023/04/16 12:08:59;;;;;;;3.38;1.00;;;18.70;41.60;;;;;;6320481;22;20199;-85
2023/04/16 12:11:37;;;;;;;2.47;1.23;;;18.70;41.60;;;;;;6265903;22;20162;-84
2023/04/16 12:14:07;;;;;;;2.00;0.95;;;18.70;41.30;;;;;;6296077;22;20185;-83
2023/04/16 12:16:33;;;;;;;2.88;1.13;;;18.70;41.80;;;;;;6264544;22;20508;-84
2023/04/16 12:19:10;;;;;;;1.15;1.00;;;18.70;41.60;;;;;;6317234;22;20132;-85
2023/04/16 12:21:38;;;;;;;1.95;0.80;;;18.70;41.80;;;;;;6242465;22;20200;-84
2023/04/16 12:24:12;;;;;;;4.20;1.20;;;18.60;41.50;;;;;;6293000;22;20641;-83
2023/04/16 12:26:56;;;;;;;1.10;1.00;;;18.70;41.50;;;;;;6242262;22;20162;-84
2023/04/16 12:29:23;;;;;;;1.75;0.88;;;18.70;41.50;;;;;;6221780;22;20147;-85
2023/04/16 12:31:49;;;;;;;2.28;1.10;;;18.70;41.50;;;;;;6289817;22;20186;-86
2023/04/16 12:34:22;;;;;;;1.73;1.05;;;18.70;41.60;;;;;;6292765;22;20159;-85
2023/04/16 12:37:05;;;;;;;1.10;1.00;;;18.70;41.30;;;;;;6289519;22;20151;-85
2023/04/16 12:39:53;;;;;;;0.90;0.90;;;18.70;41.70;;;;;;6228378;22;20570;-85
2023/04/16 12:42:35;;;;;;;1.30;1.10;;;18.60;41.60;;;;;;6272560;22;20143;-87
2023/04/16 12:45:15;;;;;;;1.65;0.98;;;18.60;42.30;;;;;;6204914;23;20150;-85
2023/04/16 12:47:46;;;;;;;1.85;1.00;;;18.70;41.10;;;;;;6175659;23;20157;-86
2023/04/16 12:50:12;;;;;;;1.42;1.02;;;18.70;41.20;;;;;;6076274;23;20741;-83
2023/04/16 12:52:42;;;;;;;2.03;0.93;;;18.70;40.90;;;;;;6050718;23;20150;-84
2023/04/16 12:55:10;;;;;;;1.58;1.10;;;18.70;41.10;;;;;;6030511;23;20237;-84